createdAt,value
2022-09-09T00:00:26.546Z,3.50
2022-09-09T00:05:30.494Z,4.10
2022-09-09T00:10:31.717Z,3.00
2022-09-09T00:15:34.894Z,3.67
2022-09-09T00:20:39.508Z,4.05
2022-09-09T00:25:52.658Z,3.33
2022-09-09T00:30:50.242Z,4.75
2022-09-09T00:35:50.030Z,4.80
2022-09-09T00:40:52.734Z,3.63
2022-09-09T00:46:24.403Z,4.15
2022-09-09T00:51:31.068Z,3.25
2022-09-09T00:56:36.371Z,3.78
2022-09-09T01:01:36.344Z,4.47
2022-09-09T01:06:37.241Z,3.65
2022-09-09T01:11:46.936Z,3.53
2022-09-09T01:16:47.540Z,5.13
2022-09-09T01:21:57.102Z,7.47
2022-09-09T01:27:01.109Z,5.10
2022-09-09T01:32:01.720Z,7.72
2022-09-09T01:37:05.386Z,7.22
2022-09-09T01:42:05.222Z,5.40
2022-09-09T01:47:09.809Z,3.90
2022-09-09T01:52:22.170Z,3.33
2022-09-09T01:57:24.654Z,2.83
2022-09-09T02:02:31.402Z,3.42
2022-09-09T02:07:42.783Z,4.75
2022-09-09T02:13:04.151Z,4.65
2022-09-09T02:18:08.921Z,4.60
2022-09-09T02:23:09.073Z,4.07
2022-09-09T02:28:10.759Z,3.22
2022-09-09T02:33:12.977Z,9.95
2022-09-09T02:38:17.420Z,3.53
2022-09-09T02:43:32.849Z,3.90
2022-09-09T02:48:41.627Z,9.45
2022-09-09T02:53:45.511Z,5.97
2022-09-09T02:58:48.831Z,3.20
2022-09-09T03:03:46.974Z,5.00
2022-09-09T03:08:49.551Z,4.43
2022-09-09T03:13:52.775Z,3.22
2022-09-09T03:18:51.631Z,4.85
2022-09-09T03:23:51.199Z,6.15
2022-09-09T03:28:55.590Z,3.47
2022-09-09T03:34:05.760Z,4.57
2022-09-09T03:39:09.232Z,5.22
2022-09-09T03:44:07.325Z,3.47
2022-09-09T03:49:11.489Z,6.85
2022-09-09T03:54:10.684Z,5.82
2022-09-09T03:59:11.207Z,3.22
2022-09-09T04:04:12.723Z,3.95
2022-09-09T04:09:13.195Z,3.50
2022-09-09T04:14:16.676Z,4.53
2022-09-09T04:19:14.773Z,4.85
2022-09-09T04:24:16.791Z,4.82
2022-09-09T04:29:30.217Z,7.78
2022-09-09T04:34:49.763Z,5.45
2022-09-09T04:39:48.591Z,3.65
2022-09-09T04:45:03.553Z,3.70
2022-09-09T04:55:12.281Z,5.00
2022-09-09T05:05:15.574Z,3.17
2022-09-09T05:10:18.530Z,3.78
2022-09-09T05:15:23.847Z,7.57
2022-09-09T05:20:22.136Z,7.13
2022-09-09T05:25:21.181Z,5.32
2022-09-09T05:30:22.691Z,7.35
2022-09-09T05:35:24.434Z,5.88
2022-09-09T05:40:25.662Z,5.53
2022-09-09T05:45:29.475Z,3.30
2022-09-09T05:50:48.847Z,3.88
2022-09-09T05:56:10.059Z,3.35
2022-09-09T06:01:10.525Z,3.53
2022-09-09T06:06:20.996Z,4.38
2022-09-09T15:46:08.986Z,16.55
2022-09-09T15:51:31.154Z,16.50
2022-09-09T15:56:38.530Z,15.50
2022-09-09T16:02:08.672Z,13.75
2022-09-09T16:07:42.911Z,16.58
2022-09-09T16:13:17.492Z,11.00
2022-09-09T16:19:35.626Z,10.73
2022-09-09T16:24:54.189Z,8.55
2022-09-09T16:29:54.296Z,9.98
2022-09-09T16:35:26.508Z,12.27
2022-09-09T16:41:04.243Z,10.45
2022-09-09T16:46:07.227Z,7.25
2022-09-09T16:52:26.934Z,10.73
2022-09-09T16:57:42.524Z,12.75
2022-09-09T17:03:27.708Z,11.45
2022-09-09T17:08:57.967Z,9.38
2022-09-09T17:14:32.599Z,11.43
2022-09-09T17:20:18.206Z,8.73
2022-09-09T17:26:14.654Z,9.30
2022-09-09T17:31:21.433Z,10.20
2022-09-09T17:37:14.126Z,11.40
2022-09-09T17:42:43.389Z,11.43
2022-09-09T17:47:48.122Z,10.15
2022-09-09T17:53:29.515Z,10.32
2022-09-09T17:58:41.727Z,12.90
2022-09-09T18:03:45.381Z,12.73
2022-09-09T18:08:51.905Z,13.20
2022-09-09T18:13:50.322Z,14.05
2022-09-09T18:19:01.519Z,10.13
2022-09-09T18:24:10.296Z,11.43
2022-09-09T18:29:18.082Z,11.15
2022-09-09T18:34:39.630Z,20.17
2022-09-09T18:39:47.205Z,9.38
2022-09-09T18:45:04.500Z,14.68
2022-09-09T18:50:33.802Z,13.88
2022-09-09T18:56:06.732Z,11.20
2022-09-09T19:01:12.687Z,13.50
2022-09-09T19:06:30.447Z,15.05
2022-09-09T19:12:03.221Z,11.88
2022-09-09T19:17:21.175Z,12.00
2022-09-09T19:22:35.855Z,14.77
2022-09-09T19:28:02.648Z,13.05
2022-09-09T19:33:29.313Z,12.25
2022-09-09T19:43:52.423Z,10.30
2022-09-09T19:48:50.161Z,9.85
2022-09-09T19:54:13.215Z,7.55
2022-09-09T19:59:20.739Z,10.30
2022-09-09T20:04:38.887Z,10.25
2022-09-09T20:09:47.162Z,7.72
2022-09-09T20:14:55.344Z,12.20
2022-09-09T20:20:06.650Z,12.48
2022-09-09T20:30:36.013Z,8.93
2022-09-09T20:35:44.469Z,10.65
2022-09-09T20:41:03.934Z,9.10
2022-09-09T20:46:13.099Z,8.07
2022-09-09T20:51:31.058Z,6.78
2022-09-09T20:56:35.594Z,8.23
2022-09-09T21:01:56.316Z,7.35
2022-09-09T21:06:56.851Z,9.40
2022-09-09T21:11:59.779Z,9.82
2022-09-09T21:17:09.414Z,9.57
2022-09-09T21:22:14.263Z,8.10
2022-09-09T21:27:15.555Z,11.57
2022-09-09T21:32:34.981Z,8.43
2022-09-09T21:37:36.717Z,8.45
2022-09-09T21:42:39.956Z,12.85
2022-09-09T21:47:47.591Z,24.55
2022-09-09T21:52:49.633Z,10.93
2022-09-09T21:58:01.358Z,8.35
2022-09-09T22:03:07.211Z,10.07
2022-09-09T22:08:13.191Z,11.27
2022-09-09T22:13:17.103Z,8.05
2022-09-09T22:18:29.408Z,6.90
2022-09-09T22:23:29.038Z,8.43
2022-09-09T22:28:31.472Z,8.60
2022-09-09T22:33:35.965Z,6.72
2022-09-09T22:38:35.818Z,5.65
2022-09-09T22:43:36.596Z,8.85
2022-09-09T22:48:40.247Z,8.60
2022-09-09T22:53:38.738Z,6.33
2022-09-09T22:58:39.048Z,4.75
2022-09-09T23:03:40.647Z,6.78
2022-09-09T23:08:39.350Z,5.13
2022-09-09T23:13:43.701Z,4.63
2022-09-09T23:18:46.484Z,7.72
2022-09-09T23:23:56.943Z,4.75
2022-09-09T23:28:57.850Z,6.40
2022-09-09T23:34:15.984Z,6.45
2022-09-09T23:39:13.461Z,6.82
2022-09-09T23:44:27.849Z,6.32
2022-09-09T23:49:27.084Z,5.80
2022-09-09T23:54:26.605Z,4.85
2022-09-09T23:59:28.554Z,5.05
